sensor_id;sensor_type;location;lat;lon;timestamp;P1;durP1;ratioP1;P2;durP2;ratioP2
18917;SDS011;9591;52.742;13.650;2022-07-23T00:02:39;9.93;;;5.27;;
18917;SDS011;9591;52.742;13.650;2022-07-23T00:05:26;9.87;;;5.23;;
18917;SDS011;9591;52.742;13.650;2022-07-23T00:08:12;9.70;;;5.80;;
18917;SDS011;9591;52.742;13.650;2022-07-23T00:11:01;9.27;;;5.67;;
18917;SDS011;9591;52.742;13.650;2022-07-23T00:13:50;9.43;;;5.23;;
18917;SDS011;9591;52.742;13.650;2022-07-23T00:16:38;8.90;;;5.47;;
18917;SDS011;9591;52.742;13.650;2022-07-23T00:19:26;10.00;;;5.57;;
18917;SDS011;9591;52.742;13.650;2022-07-23T00:22:17;12.87;;;5.80;;
18917;SDS011;9591;52.742;13.650;2022-07-23T00:25:04;12.43;;;5.67;;
18917;SDS011;9591;52.742;13.650;2022-07-23T00:28:12;8.30;;;5.60;;
18917;SDS011;9591;52.742;13.650;2022-07-23T00:31:00;12.47;;;5.73;;
18917;SDS011;9591;52.742;13.650;2022-07-23T00:33:47;11.23;;;5.97;;
18917;SDS011;9591;52.742;13.650;2022-07-23T00:36:33;8.67;;;5.90;;
18917;SDS011;9591;52.742;13.650;2022-07-23T00:39:20;11.67;;;6.57;;
18917;SDS011;9591;52.742;13.650;2022-07-23T00:42:08;12.57;;;6.37;;
18917;SDS011;9591;52.742;13.650;2022-07-23T00:44:56;8.97;;;5.90;;
18917;SDS011;9591;52.742;13.650;2022-07-23T00:47:43;10.67;;;6.20;;
18917;SDS011;9591;52.742;13.650;2022-07-23T00:50:30;12.07;;;6.27;;
18917;SDS011;9591;52.742;13.650;2022-07-23T00:53:17;10.60;;;6.03;;
18917;SDS011;9591;52.742;13.650;2022-07-23T00:56:06;10.03;;;6.07;;
18917;SDS011;9591;52.742;13.650;2022-07-23T00:58:53;9.57;;;5.83;;
18917;SDS011;9591;52.742;13.650;2022-07-23T01:01:42;11.30;;;6.70;;
18917;SDS011;9591;52.742;13.650;2022-07-23T01:04:29;10.93;;;5.73;;
18917;SDS011;9591;52.742;13.650;2022-07-23T01:07:16;10.57;;;6.10;;
18917;SDS011;9591;52.742;13.650;2022-07-23T01:10:03;9.53;;;5.77;;
18917;SDS011;9591;52.742;13.650;2022-07-23T01:13:11;9.37;;;5.90;;
18917;SDS011;9591;52.742;13.650;2022-07-23T01:15:58;9.83;;;5.67;;
18917;SDS011;9591;52.742;13.650;2022-07-23T01:18:46;13.43;;;6.07;;
18917;SDS011;9591;52.742;13.650;2022-07-23T01:21:34;12.93;;;5.83;;
18917;SDS011;9591;52.742;13.650;2022-07-23T01:24:23;12.73;;;6.53;;
18917;SDS011;9591;52.742;13.650;2022-07-23T01:27:18;17.60;;;7.73;;
18917;SDS011;9591;52.742;13.650;2022-07-23T01:30:08;16.07;;;6.40;;
18917;SDS011;9591;52.742;13.650;2022-07-23T01:32:55;18.73;;;6.30;;
18917;SDS011;9591;52.742;13.650;2022-07-23T01:35:42;23.03;;;6.30;;
18917;SDS011;9591;52.742;13.650;2022-07-23T01:38:31;19.53;;;6.23;;
18917;SDS011;9591;52.742;13.650;2022-07-23T01:41:19;15.63;;;7.33;;
18917;SDS011;9591;52.742;13.650;2022-07-23T01:44:06;13.77;;;5.77;;
18917;SDS011;9591;52.742;13.650;2022-07-23T01:46:55;10.83;;;6.37;;
18917;SDS011;9591;52.742;13.650;2022-07-23T01:49:42;13.60;;;6.33;;
18917;SDS011;9591;52.742;13.650;2022-07-23T01:52:47;13.73;;;6.30;;
18917;SDS011;9591;52.742;13.650;2022-07-23T01:55:34;12.27;;;6.13;;
18917;SDS011;9591;52.742;13.650;2022-07-23T01:58:23;15.20;;;6.03;;
18917;SDS011;9591;52.742;13.650;2022-07-23T02:01:09;10.93;;;6.53;;
18917;SDS011;9591;52.742;13.650;2022-07-23T02:03:56;11.20;;;6.60;;
18917;SDS011;9591;52.742;13.650;2022-07-23T02:06:43;13.27;;;6.23;;
18917;SDS011;9591;52.742;13.650;2022-07-23T02:09:30;14.80;;;7.07;;
18917;SDS011;9591;52.742;13.650;2022-07-23T02:12:16;12.53;;;6.47;;
18917;SDS011;9591;52.742;13.650;2022-07-23T02:15:05;11.13;;;6.37;;
18917;SDS011;9591;52.742;13.650;2022-07-23T02:17:54;11.27;;;6.60;;
18917;SDS011;9591;52.742;13.650;2022-07-23T02:20:41;9.30;;;6.10;;
18917;SDS011;9591;52.742;13.650;2022-07-23T02:23:29;11.43;;;6.27;;
18917;SDS011;9591;52.742;13.650;2022-07-23T02:26:16;15.73;;;6.90;;
18917;SDS011;9591;52.742;13.650;2022-07-23T02:29:07;10.97;;;6.40;;
18917;SDS011;9591;52.742;13.650;2022-07-23T02:31:56;12.37;;;6.43;;
18917;SDS011;9591;52.742;13.650;2022-07-23T02:34:43;14.90;;;6.40;;
18917;SDS011;9591;52.742;13.650;2022-07-23T02:37:30;10.60;;;6.23;;
18917;SDS011;9591;52.742;13.650;2022-07-23T02:40:17;10.77;;;6.23;;
18917;SDS011;9591;52.742;13.650;2022-07-23T02:43:05;15.17;;;6.77;;
18917;SDS011;9591;52.742;13.650;2022-07-23T02:45:51;14.53;;;6.47;;
18917;SDS011;9591;52.742;13.650;2022-07-23T02:48:39;8.87;;;5.90;;
18917;SDS011;9591;52.742;13.650;2022-07-23T02:51:26;10.37;;;6.00;;
18917;SDS011;9591;52.742;13.650;2022-07-23T02:54:16;10.53;;;5.83;;
18917;SDS011;9591;52.742;13.650;2022-07-23T02:57:03;12.40;;;6.10;;
18917;SDS011;9591;52.742;13.650;2022-07-23T02:59:50;9.80;;;6.10;;
18917;SDS011;9591;52.742;13.650;2022-07-23T03:02:37;12.07;;;6.20;;
18917;SDS011;9591;52.742;13.650;2022-07-23T03:05:25;11.93;;;6.93;;
18917;SDS011;9591;52.742;13.650;2022-07-23T03:08:12;10.90;;;6.07;;
18917;SDS011;9591;52.742;13.650;2022-07-23T03:11:03;10.80;;;6.27;;
18917;SDS011;9591;52.742;13.650;2022-07-23T03:13:52;12.50;;;6.20;;
18917;SDS011;9591;52.742;13.650;2022-07-23T03:16:40;10.83;;;5.87;;
18917;SDS011;9591;52.742;13.650;2022-07-23T03:19:27;11.43;;;5.90;;
18917;SDS011;9591;52.742;13.650;2022-07-23T03:22:15;10.40;;;6.30;;
18917;SDS011;9591;52.742;13.650;2022-07-23T03:25:02;9.43;;;5.73;;
18917;SDS011;9591;52.742;13.650;2022-07-23T03:27:52;10.57;;;5.43;;
18917;SDS011;9591;52.742;13.650;2022-07-23T03:30:39;9.50;;;5.07;;
18917;SDS011;9591;52.742;13.650;2022-07-23T03:33:26;7.77;;;5.17;;
18917;SDS011;9591;52.742;13.650;2022-07-23T03:36:12;16.73;;;6.20;;
18917;SDS011;9591;52.742;13.650;2022-07-23T03:39:04;10.10;;;5.53;;
18917;SDS011;9591;52.742;13.650;2022-07-23T03:41:56;9.00;;;5.87;;
18917;SDS011;9591;52.742;13.650;2022-07-23T03:44:43;10.60;;;5.33;;
18917;SDS011;9591;52.742;13.650;2022-07-23T03:47:30;10.77;;;5.27;;
18917;SDS011;9591;52.742;13.650;2022-07-23T03:50:17;10.43;;;5.13;;
18917;SDS011;9591;52.742;13.650;2022-07-23T03:53:03;8.87;;;5.17;;
18917;SDS011;9591;52.742;13.650;2022-07-23T03:55:53;10.57;;;4.90;;
18917;SDS011;9591;52.742;13.650;2022-07-23T03:58:41;8.43;;;4.50;;
18917;SDS011;9591;52.742;13.650;2022-07-23T04:01:27;9.67;;;5.40;;
18917;SDS011;9591;52.742;13.650;2022-07-23T04:04:16;12.70;;;5.23;;
18917;SDS011;9591;52.742;13.650;2022-07-23T04:07:03;17.43;;;5.73;;
18917;SDS011;9591;52.742;13.650;2022-07-23T04:09:50;11.97;;;5.13;;
18917;SDS011;9591;52.742;13.650;2022-07-23T04:12:38;8.90;;;4.67;;
18917;SDS011;9591;52.742;13.650;2022-07-23T04:15:25;8.60;;;4.60;;
18917;SDS011;9591;52.742;13.650;2022-07-23T04:18:12;13.60;;;4.63;;
18917;SDS011;9591;52.742;13.650;2022-07-23T04:21:11;9.57;;;4.37;;
18917;SDS011;9591;52.742;13.650;2022-07-23T04:23:57;8.90;;;5.17;;
18917;SDS011;9591;52.742;13.650;2022-07-23T04:26:44;7.77;;;4.47;;
18917;SDS011;9591;52.742;13.650;2022-07-23T04:29:32;9.50;;;4.73;;
18917;SDS011;9591;52.742;13.650;2022-07-23T04:32:19;8.80;;;4.47;;
18917;SDS011;9591;52.742;13.650;2022-07-23T04:35:06;6.20;;;3.97;;
18917;SDS011;9591;52.742;13.650;2022-07-23T04:37:53;9.17;;;4.00;;
18917;SDS011;9591;52.742;13.650;2022-07-23T04:40:41;9.73;;;4.73;;
18917;SDS011;9591;52.742;13.650;2022-07-23T04:43:27;9.73;;;4.80;;
18917;SDS011;9591;52.742;13.650;2022-07-23T04:46:15;9.40;;;4.47;;
18917;SDS011;9591;52.742;13.650;2022-07-23T04:49:06;9.67;;;4.47;;
18917;SDS011;9591;52.742;13.650;2022-07-23T04:51:53;7.93;;;4.73;;
18917;SDS011;9591;52.742;13.650;2022-07-23T04:54:39;6.67;;;4.07;;
18917;SDS011;9591;52.742;13.650;2022-07-23T04:57:26;7.30;;;4.50;;
18917;SDS011;9591;52.742;13.650;2022-07-23T05:00:13;6.90;;;4.17;;
18917;SDS011;9591;52.742;13.650;2022-07-23T05:03:02;10.47;;;4.83;;
18917;SDS011;9591;52.742;13.650;2022-07-23T05:05:50;10.33;;;4.23;;
18917;SDS011;9591;52.742;13.650;2022-07-23T05:08:37;12.03;;;4.87;;
18917;SDS011;9591;52.742;13.650;2022-07-23T05:11:24;13.17;;;4.87;;
18917;SDS011;9591;52.742;13.650;2022-07-23T05:14:11;10.00;;;4.70;;
18917;SDS011;9591;52.742;13.650;2022-07-23T05:16:59;15.83;;;4.70;;
18917;SDS011;9591;52.742;13.650;2022-07-23T05:19:47;11.70;;;5.83;;
18917;SDS011;9591;52.742;13.650;2022-07-23T05:22:34;8.33;;;4.83;;
18917;SDS011;9591;52.742;13.650;2022-07-23T05:25:21;6.00;;;3.90;;
18917;SDS011;9591;52.742;13.650;2022-07-23T05:28:08;8.83;;;4.20;;
18917;SDS011;9591;52.742;13.650;2022-07-23T05:30:55;12.93;;;4.73;;
18917;SDS011;9591;52.742;13.650;2022-07-23T05:33:42;10.70;;;4.63;;
18917;SDS011;9591;52.742;13.650;2022-07-23T05:36:32;13.30;;;5.00;;
18917;SDS011;9591;52.742;13.650;2022-07-23T05:39:20;9.00;;;4.57;;
18917;SDS011;9591;52.742;13.650;2022-07-23T05:42:07;10.30;;;4.23;;
18917;SDS011;9591;52.742;13.650;2022-07-23T05:44:55;8.13;;;4.43;;
18917;SDS011;9591;52.742;13.650;2022-07-23T05:47:44;11.27;;;4.40;;
18917;SDS011;9591;52.742;13.650;2022-07-23T05:50:38;7.17;;;4.17;;
18917;SDS011;9591;52.742;13.650;2022-07-23T05:53:38;6.63;;;4.07;;
18917;SDS011;9591;52.742;13.650;2022-07-23T05:56:33;5.07;;;3.53;;
18917;SDS011;9591;52.742;13.650;2022-07-23T05:59:20;6.80;;;3.23;;
18917;SDS011;9591;52.742;13.650;2022-07-23T06:02:06;7.80;;;4.50;;
18917;SDS011;9591;52.742;13.650;2022-07-23T06:04:53;7.63;;;4.53;;
18917;SDS011;9591;52.742;13.650;2022-07-23T06:07:45;6.97;;;4.00;;
18917;SDS011;9591;52.742;13.650;2022-07-23T06:10:34;6.03;;;4.00;;
18917;SDS011;9591;52.742;13.650;2022-07-23T06:13:22;6.67;;;3.73;;
18917;SDS011;9591;52.742;13.650;2022-07-23T06:16:08;5.43;;;3.63;;
18917;SDS011;9591;52.742;13.650;2022-07-23T06:18:55;9.20;;;3.63;;
18917;SDS011;9591;52.742;13.650;2022-07-23T06:21:44;9.10;;;3.77;;
18917;SDS011;9591;52.742;13.650;2022-07-23T06:24:33;13.47;;;3.87;;
18917;SDS011;9591;52.742;13.650;2022-07-23T06:27:22;7.13;;;4.07;;
18917;SDS011;9591;52.742;13.650;2022-07-23T06:30:11;7.97;;;3.97;;
18917;SDS011;9591;52.742;13.650;2022-07-23T06:33:05;10.43;;;4.17;;
18917;SDS011;9591;52.742;13.650;2022-07-23T06:35:52;9.77;;;3.60;;
18917;SDS011;9591;52.742;13.650;2022-07-23T06:38:41;9.07;;;3.93;;
18917;SDS011;9591;52.742;13.650;2022-07-23T06:41:29;9.10;;;4.33;;
18917;SDS011;9591;52.742;13.650;2022-07-23T06:44:20;8.33;;;4.50;;
18917;SDS011;9591;52.742;13.650;2022-07-23T06:47:15;7.10;;;4.27;;
18917;SDS011;9591;52.742;13.650;2022-07-23T06:50:03;10.57;;;4.93;;
18917;SDS011;9591;52.742;13.650;2022-07-23T06:52:50;9.23;;;4.50;;
18917;SDS011;9591;52.742;13.650;2022-07-23T06:55:37;10.97;;;5.07;;
18917;SDS011;9591;52.742;13.650;2022-07-23T06:58:25;12.77;;;5.57;;
18917;SDS011;9591;52.742;13.650;2022-07-23T07:01:16;7.50;;;4.00;;
18917;SDS011;9591;52.742;13.650;2022-07-23T07:04:04;11.60;;;4.13;;
18917;SDS011;9591;52.742;13.650;2022-07-23T07:06:51;8.80;;;4.60;;
18917;SDS011;9591;52.742;13.650;2022-07-23T07:09:40;8.13;;;3.93;;
18917;SDS011;9591;52.742;13.650;2022-07-23T07:12:30;4.97;;;3.53;;
18917;SDS011;9591;52.742;13.650;2022-07-23T07:18:29;10.60;;;4.73;;
18917;SDS011;9591;52.742;13.650;2022-07-23T07:21:16;7.20;;;4.27;;
18917;SDS011;9591;52.742;13.650;2022-07-23T07:24:03;7.63;;;4.40;;
18917;SDS011;9591;52.742;13.650;2022-07-23T07:26:51;10.73;;;4.50;;
18917;SDS011;9591;52.742;13.650;2022-07-23T07:29:38;7.60;;;4.40;;
18917;SDS011;9591;52.742;13.650;2022-07-23T07:32:25;11.13;;;4.67;;
18917;SDS011;9591;52.742;13.650;2022-07-23T07:35:33;10.30;;;4.77;;
18917;SDS011;9591;52.742;13.650;2022-07-23T07:38:20;7.97;;;4.10;;
18917;SDS011;9591;52.742;13.650;2022-07-23T07:41:07;9.83;;;4.50;;
18917;SDS011;9591;52.742;13.650;2022-07-23T07:43:55;8.30;;;4.70;;
18917;SDS011;9591;52.742;13.650;2022-07-23T07:46:42;9.50;;;4.40;;
18917;SDS011;9591;52.742;13.650;2022-07-23T07:49:29;9.90;;;4.50;;
18917;SDS011;9591;52.742;13.650;2022-07-23T07:52:20;9.10;;;4.70;;
18917;SDS011;9591;52.742;13.650;2022-07-23T07:55:08;11.10;;;4.40;;
18917;SDS011;9591;52.742;13.650;2022-07-23T07:57:56;8.63;;;4.83;;
18917;SDS011;9591;52.742;13.650;2022-07-23T08:00:46;8.50;;;5.10;;
18917;SDS011;9591;52.742;13.650;2022-07-23T08:03:39;7.07;;;4.67;;
18917;SDS011;9591;52.742;13.650;2022-07-23T08:06:26;10.23;;;4.20;;
18917;SDS011;9591;52.742;13.650;2022-07-23T08:09:15;9.00;;;4.33;;
18917;SDS011;9591;52.742;13.650;2022-07-23T08:12:01;9.60;;;3.90;;
18917;SDS011;9591;52.742;13.650;2022-07-23T08:14:48;5.60;;;3.70;;
18917;SDS011;9591;52.742;13.650;2022-07-23T08:17:35;7.90;;;3.70;;
18917;SDS011;9591;52.742;13.650;2022-07-23T08:20:22;5.07;;;3.40;;
18917;SDS011;9591;52.742;13.650;2022-07-23T08:23:13;5.40;;;3.77;;
18917;SDS011;9591;52.742;13.650;2022-07-23T08:26:01;10.87;;;3.70;;
18917;SDS011;9591;52.742;13.650;2022-07-23T08:28:48;5.93;;;3.20;;
18917;SDS011;9591;52.742;13.650;2022-07-23T08:31:34;7.73;;;2.87;;
18917;SDS011;9591;52.742;13.650;2022-07-23T08:34:21;5.77;;;3.43;;
18917;SDS011;9591;52.742;13.650;2022-07-23T08:37:08;10.53;;;4.47;;
18917;SDS011;9591;52.742;13.650;2022-07-23T08:39:55;6.17;;;3.10;;
18917;SDS011;9591;52.742;13.650;2022-07-23T08:42:43;6.30;;;3.20;;
18917;SDS011;9591;52.742;13.650;2022-07-23T08:45:34;5.90;;;2.90;;
18917;SDS011;9591;52.742;13.650;2022-07-23T08:48:23;6.37;;;3.00;;
18917;SDS011;9591;52.742;13.650;2022-07-23T08:51:12;3.00;;;2.50;;
18917;SDS011;9591;52.742;13.650;2022-07-23T08:53:58;4.47;;;2.43;;
18917;SDS011;9591;52.742;13.650;2022-07-23T08:56:46;5.03;;;2.80;;
18917;SDS011;9591;52.742;13.650;2022-07-23T08:59:35;3.00;;;2.50;;
18917;SDS011;9591;52.742;13.650;2022-07-23T09:02:23;4.27;;;2.47;;
18917;SDS011;9591;52.742;13.650;2022-07-23T09:05:12;3.70;;;2.50;;
18917;SDS011;9591;52.742;13.650;2022-07-23T09:08:04;3.70;;;2.57;;
18917;SDS011;9591;52.742;13.650;2022-07-23T09:10:59;3.73;;;2.27;;
18917;SDS011;9591;52.742;13.650;2022-07-23T09:13:47;3.13;;;2.63;;
18917;SDS011;9591;52.742;13.650;2022-07-23T09:16:35;7.27;;;2.80;;
18917;SDS011;9591;52.742;13.650;2022-07-23T09:19:22;9.63;;;2.80;;
18917;SDS011;9591;52.742;13.650;2022-07-23T09:22:17;6.87;;;2.70;;
18917;SDS011;9591;52.742;13.650;2022-07-23T09:25:13;5.27;;;2.40;;
18917;SDS011;9591;52.742;13.650;2022-07-23T09:28:01;4.30;;;2.53;;
18917;SDS011;9591;52.742;13.650;2022-07-23T09:30:48;7.77;;;2.90;;
18917;SDS011;9591;52.742;13.650;2022-07-23T09:33:39;3.90;;;2.37;;
18917;SDS011;9591;52.742;13.650;2022-07-23T09:36:28;4.33;;;2.57;;
18917;SDS011;9591;52.742;13.650;2022-07-23T09:39:24;5.70;;;2.83;;
18917;SDS011;9591;52.742;13.650;2022-07-23T09:42:17;4.63;;;2.70;;
18917;SDS011;9591;52.742;13.650;2022-07-23T09:45:07;5.73;;;3.17;;
18917;SDS011;9591;52.742;13.650;2022-07-23T09:48:09;4.17;;;2.90;;
18917;SDS011;9591;52.742;13.650;2022-07-23T09:51:03;3.60;;;3.03;;
18917;SDS011;9591;52.742;13.650;2022-07-23T09:53:50;4.03;;;2.90;;
18917;SDS011;9591;52.742;13.650;2022-07-23T09:56:36;3.93;;;3.10;;
18917;SDS011;9591;52.742;13.650;2022-07-23T09:59:25;5.13;;;3.13;;
18917;SDS011;9591;52.742;13.650;2022-07-23T10:02:13;6.40;;;3.00;;
18917;SDS011;9591;52.742;13.650;2022-07-23T10:05:22;4.53;;;3.30;;
18917;SDS011;9591;52.742;13.650;2022-07-23T10:08:33;4.23;;;2.93;;
18917;SDS011;9591;52.742;13.650;2022-07-23T10:11:40;7.00;;;3.47;;
18917;SDS011;9591;52.742;13.650;2022-07-23T10:14:53;8.70;;;3.53;;
18917;SDS011;9591;52.742;13.650;2022-07-23T10:17:43;6.73;;;3.33;;
18917;SDS011;9591;52.742;13.650;2022-07-23T10:20:30;6.97;;;3.20;;
18917;SDS011;9591;52.742;13.650;2022-07-23T10:23:18;4.73;;;2.90;;
18917;SDS011;9591;52.742;13.650;2022-07-23T10:26:12;6.63;;;2.97;;
18917;SDS011;9591;52.742;13.650;2022-07-23T10:29:08;4.43;;;3.07;;
18917;SDS011;9591;52.742;13.650;2022-07-23T10:32:00;4.00;;;2.70;;
18917;SDS011;9591;52.742;13.650;2022-07-23T10:34:52;3.97;;;3.00;;
18917;SDS011;9591;52.742;13.650;2022-07-23T10:37:45;6.00;;;3.00;;
18917;SDS011;9591;52.742;13.650;2022-07-23T10:40:35;3.70;;;3.30;;
18917;SDS011;9591;52.742;13.650;2022-07-23T10:43:23;6.90;;;3.43;;
18917;SDS011;9591;52.742;13.650;2022-07-23T10:46:22;7.90;;;3.00;;
18917;SDS011;9591;52.742;13.650;2022-07-23T10:49:21;7.47;;;2.70;;
18917;SDS011;9591;52.742;13.650;2022-07-23T10:52:17;5.47;;;2.87;;
18917;SDS011;9591;52.742;13.650;2022-07-23T11:01:34;6.10;;;2.80;;
18917;SDS011;9591;52.742;13.650;2022-07-23T11:07:37;4.30;;;2.60;;
18917;SDS011;9591;52.742;13.650;2022-07-23T11:11:10;4.63;;;2.80;;
18917;SDS011;9591;52.742;13.650;2022-07-23T11:13:59;4.30;;;2.80;;
18917;SDS011;9591;52.742;13.650;2022-07-23T11:16:46;5.67;;;2.97;;
18917;SDS011;9591;52.742;13.650;2022-07-23T11:22:51;6.67;;;3.07;;
18917;SDS011;9591;52.742;13.650;2022-07-23T11:25:40;5.33;;;2.83;;
18917;SDS011;9591;52.742;13.650;2022-07-23T11:28:27;8.83;;;2.77;;
18917;SDS011;9591;52.742;13.650;2022-07-23T11:31:18;4.63;;;3.20;;
18917;SDS011;9591;52.742;13.650;2022-07-23T11:37:27;6.60;;;3.03;;
18917;SDS011;9591;52.742;13.650;2022-07-23T11:40:16;11.13;;;2.97;;
18917;SDS011;9591;52.742;13.650;2022-07-23T11:43:04;10.40;;;2.83;;
18917;SDS011;9591;52.742;13.650;2022-07-23T11:45:53;8.37;;;3.17;;
18917;SDS011;9591;52.742;13.650;2022-07-23T11:48:44;4.87;;;2.97;;
18917;SDS011;9591;52.742;13.650;2022-07-23T11:51:31;4.60;;;2.63;;
18917;SDS011;9591;52.742;13.650;2022-07-23T11:54:17;5.53;;;2.87;;
18917;SDS011;9591;52.742;13.650;2022-07-23T11:57:04;3.83;;;2.70;;
18917;SDS011;9591;52.742;13.650;2022-07-23T11:59:52;5.90;;;2.93;;
18917;SDS011;9591;52.742;13.650;2022-07-23T12:02:42;5.60;;;2.80;;
18917;SDS011;9591;52.742;13.650;2022-07-23T12:05:32;3.47;;;2.70;;
18917;SDS011;9591;52.742;13.650;2022-07-23T12:08:20;6.00;;;3.27;;
18917;SDS011;9591;52.742;13.650;2022-07-23T12:11:07;4.73;;;2.70;;
18917;SDS011;9591;52.742;13.650;2022-07-23T12:13:55;4.27;;;2.50;;
18917;SDS011;9591;52.742;13.650;2022-07-23T12:16:42;8.27;;;2.57;;
18917;SDS011;9591;52.742;13.650;2022-07-23T12:19:29;4.37;;;2.43;;
18917;SDS011;9591;52.742;13.650;2022-07-23T12:22:17;3.33;;;2.43;;
18917;SDS011;9591;52.742;13.650;2022-07-23T12:25:05;4.77;;;2.47;;
18917;SDS011;9591;52.742;13.650;2022-07-23T12:28:01;7.07;;;2.30;;
18917;SDS011;9591;52.742;13.650;2022-07-23T12:30:50;3.93;;;2.67;;
18917;SDS011;9591;52.742;13.650;2022-07-23T12:33:39;5.13;;;2.30;;
18917;SDS011;9591;52.742;13.650;2022-07-23T12:36:36;6.37;;;2.40;;
18917;SDS011;9591;52.742;13.650;2022-07-23T12:39:32;4.73;;;2.40;;
18917;SDS011;9591;52.742;13.650;2022-07-23T12:42:19;7.17;;;2.80;;
18917;SDS011;9591;52.742;13.650;2022-07-23T12:45:07;5.63;;;2.60;;
18917;SDS011;9591;52.742;13.650;2022-07-23T12:48:01;4.03;;;2.90;;
18917;SDS011;9591;52.742;13.650;2022-07-23T12:50:51;3.63;;;2.60;;
18917;SDS011;9591;52.742;13.650;2022-07-23T12:53:40;3.17;;;2.73;;
18917;SDS011;9591;52.742;13.650;2022-07-23T12:56:30;3.60;;;2.67;;
18917;SDS011;9591;52.742;13.650;2022-07-23T12:59:19;8.20;;;2.37;;
18917;SDS011;9591;52.742;13.650;2022-07-23T13:02:07;4.30;;;2.60;;
18917;SDS011;9591;52.742;13.650;2022-07-23T13:04:57;6.03;;;2.50;;
18917;SDS011;9591;52.742;13.650;2022-07-23T13:07:44;4.77;;;2.60;;
18917;SDS011;9591;52.742;13.650;2022-07-23T13:10:32;4.63;;;2.83;;
18917;SDS011;9591;52.742;13.650;2022-07-23T13:13:21;7.57;;;3.10;;
18917;SDS011;9591;52.742;13.650;2022-07-23T13:16:14;4.87;;;2.63;;
18917;SDS011;9591;52.742;13.650;2022-07-23T13:19:01;4.87;;;2.53;;
18917;SDS011;9591;52.742;13.650;2022-07-23T13:21:49;2.60;;;2.40;;
18917;SDS011;9591;52.742;13.650;2022-07-23T13:24:36;6.33;;;2.83;;
18917;SDS011;9591;52.742;13.650;2022-07-23T13:27:24;3.83;;;2.67;;
18917;SDS011;9591;52.742;13.650;2022-07-23T13:30:12;6.87;;;2.70;;
18917;SDS011;9591;52.742;13.650;2022-07-23T13:33:00;4.40;;;2.70;;
18917;SDS011;9591;52.742;13.650;2022-07-23T13:35:48;6.10;;;2.53;;
18917;SDS011;9591;52.742;13.650;2022-07-23T13:38:36;3.93;;;2.70;;
18917;SDS011;9591;52.742;13.650;2022-07-23T13:41:24;5.87;;;2.30;;
18917;SDS011;9591;52.742;13.650;2022-07-23T13:44:11;5.70;;;2.40;;
18917;SDS011;9591;52.742;13.650;2022-07-23T13:47:01;6.50;;;2.33;;
18917;SDS011;9591;52.742;13.650;2022-07-23T13:49:49;3.30;;;2.37;;
18917;SDS011;9591;52.742;13.650;2022-07-23T13:52:35;5.50;;;2.37;;
18917;SDS011;9591;52.742;13.650;2022-07-23T13:55:22;3.80;;;2.40;;
18917;SDS011;9591;52.742;13.650;2022-07-23T13:58:11;2.47;;;2.23;;
18917;SDS011;9591;52.742;13.650;2022-07-23T14:00:59;2.57;;;1.87;;
18917;SDS011;9591;52.742;13.650;2022-07-23T14:03:47;2.37;;;2.17;;
18917;SDS011;9591;52.742;13.650;2022-07-23T14:06:34;2.50;;;1.97;;
18917;SDS011;9591;52.742;13.650;2022-07-23T14:09:21;1.90;;;1.80;;
18917;SDS011;9591;52.742;13.650;2022-07-23T14:12:09;3.93;;;2.00;;
18917;SDS011;9591;52.742;13.650;2022-07-23T14:14:56;2.33;;;1.57;;
18917;SDS011;9591;52.742;13.650;2022-07-23T14:17:43;3.23;;;2.00;;
18917;SDS011;9591;52.742;13.650;2022-07-23T14:20:32;2.83;;;2.07;;
18917;SDS011;9591;52.742;13.650;2022-07-23T14:23:19;5.77;;;2.27;;
18917;SDS011;9591;52.742;13.650;2022-07-23T14:26:08;2.13;;;1.63;;
18917;SDS011;9591;52.742;13.650;2022-07-23T14:28:55;1.90;;;1.80;;
18917;SDS011;9591;52.742;13.650;2022-07-23T14:31:42;2.27;;;1.60;;
18917;SDS011;9591;52.742;13.650;2022-07-23T14:34:31;2.57;;;1.50;;
18917;SDS011;9591;52.742;13.650;2022-07-23T14:37:22;4.40;;;1.93;;
18917;SDS011;9591;52.742;13.650;2022-07-23T14:40:09;1.63;;;1.43;;
18917;SDS011;9591;52.742;13.650;2022-07-23T14:42:56;1.77;;;1.60;;
18917;SDS011;9591;52.742;13.650;2022-07-23T14:45:43;1.87;;;1.53;;
18917;SDS011;9591;52.742;13.650;2022-07-23T14:48:33;5.00;;;1.60;;
18917;SDS011;9591;52.742;13.650;2022-07-23T14:51:21;4.80;;;1.60;;
18917;SDS011;9591;52.742;13.650;2022-07-23T14:54:11;3.37;;;1.90;;
18917;SDS011;9591;52.742;13.650;2022-07-23T14:56:59;1.47;;;1.30;;
18917;SDS011;9591;52.742;13.650;2022-07-23T14:59:47;3.67;;;1.47;;
18917;SDS011;9591;52.742;13.650;2022-07-23T15:02:35;2.30;;;1.60;;
18917;SDS011;9591;52.742;13.650;2022-07-23T15:05:22;2.00;;;1.43;;
18917;SDS011;9591;52.742;13.650;2022-07-23T15:08:09;2.47;;;1.50;;
18917;SDS011;9591;52.742;13.650;2022-07-23T15:10:57;2.47;;;1.20;;
18917;SDS011;9591;52.742;13.650;2022-07-23T15:13:44;6.10;;;1.20;;
18917;SDS011;9591;52.742;13.650;2022-07-23T15:16:33;1.10;;;1.10;;
18917;SDS011;9591;52.742;13.650;2022-07-23T15:19:20;5.93;;;1.40;;
18917;SDS011;9591;52.742;13.650;2022-07-23T15:22:07;1.87;;;1.37;;
18917;SDS011;9591;52.742;13.650;2022-07-23T15:24:54;2.10;;;1.40;;
18917;SDS011;9591;52.742;13.650;2022-07-23T15:27:43;3.30;;;1.40;;
18917;SDS011;9591;52.742;13.650;2022-07-23T15:30:29;1.33;;;1.20;;
18917;SDS011;9591;52.742;13.650;2022-07-23T15:33:16;2.07;;;1.50;;
18917;SDS011;9591;52.742;13.650;2022-07-23T15:36:06;2.83;;;1.33;;
18917;SDS011;9591;52.742;13.650;2022-07-23T15:38:54;4.40;;;1.70;;
18917;SDS011;9591;52.742;13.650;2022-07-23T15:41:41;3.97;;;1.57;;
18917;SDS011;9591;52.742;13.650;2022-07-23T15:44:29;1.27;;;1.17;;
18917;SDS011;9591;52.742;13.650;2022-07-23T15:47:16;4.43;;;1.30;;
18917;SDS011;9591;52.742;13.650;2022-07-23T15:50:04;1.30;;;1.20;;
18917;SDS011;9591;52.742;13.650;2022-07-23T15:52:51;2.60;;;1.30;;
18917;SDS011;9591;52.742;13.650;2022-07-23T15:55:38;1.73;;;1.50;;
18917;SDS011;9591;52.742;13.650;2022-07-23T15:58:27;3.80;;;1.40;;
18917;SDS011;9591;52.742;13.650;2022-07-23T16:01:16;2.47;;;1.43;;
18917;SDS011;9591;52.742;13.650;2022-07-23T16:04:02;1.37;;;1.27;;
18917;SDS011;9591;52.742;13.650;2022-07-23T16:06:50;4.03;;;1.40;;
18917;SDS011;9591;52.742;13.650;2022-07-23T16:09:37;1.97;;;1.10;;
18917;SDS011;9591;52.742;13.650;2022-07-23T16:12:24;1.40;;;1.30;;
18917;SDS011;9591;52.742;13.650;2022-07-23T16:15:10;1.63;;;1.53;;
18917;SDS011;9591;52.742;13.650;2022-07-23T16:17:58;1.70;;;1.17;;
18917;SDS011;9591;52.742;13.650;2022-07-23T16:20:45;2.60;;;1.40;;
18917;SDS011;9591;52.742;13.650;2022-07-23T16:23:32;1.90;;;1.47;;
18917;SDS011;9591;52.742;13.650;2022-07-23T16:26:19;1.33;;;1.23;;
18917;SDS011;9591;52.742;13.650;2022-07-23T16:29:06;2.03;;;1.10;;
18917;SDS011;9591;52.742;13.650;2022-07-23T16:32:04;1.70;;;1.30;;
18917;SDS011;9591;52.742;13.650;2022-07-23T16:34:53;3.77;;;1.47;;
18917;SDS011;9591;52.742;13.650;2022-07-23T16:37:40;1.60;;;1.50;;
18917;SDS011;9591;52.742;13.650;2022-07-23T16:40:27;1.87;;;1.60;;
18917;SDS011;9591;52.742;13.650;2022-07-23T16:43:14;10.20;;;2.57;;
18917;SDS011;9591;52.742;13.650;2022-07-23T16:46:01;2.67;;;1.50;;
18917;SDS011;9591;52.742;13.650;2022-07-23T16:48:48;2.27;;;1.60;;
18917;SDS011;9591;52.742;13.650;2022-07-23T16:51:36;1.47;;;1.37;;
18917;SDS011;9591;52.742;13.650;2022-07-23T16:54:23;3.93;;;1.57;;
18917;SDS011;9591;52.742;13.650;2022-07-23T16:57:10;4.73;;;1.60;;
18917;SDS011;9591;52.742;13.650;2022-07-23T16:59:57;2.50;;;1.63;;
18917;SDS011;9591;52.742;13.650;2022-07-23T17:02:43;3.07;;;1.47;;
18917;SDS011;9591;52.742;13.650;2022-07-23T17:05:30;4.13;;;1.90;;
18917;SDS011;9591;52.742;13.650;2022-07-23T17:08:18;3.17;;;1.60;;
18917;SDS011;9591;52.742;13.650;2022-07-23T17:11:05;1.50;;;1.40;;
18917;SDS011;9591;52.742;13.650;2022-07-23T17:13:54;1.40;;;1.30;;